Time;durP1;ratioP1;P1;durP2;ratioP2;P2;SDS_P1;SDS_P2;PMS_P1;PMS_P2;Temp;Humidity;BMP_temperature;BMP_pressure;BME280_temperature;BME280_humidity;BME280_pressure;Samples;Min_cycle;Max_cycle;Signal;HPM_P1;HPM_P2
2020/12/05 00:00:51;;;;;;;13.88;8.32;;;;;;;8.65;68.50;97439.53;4846392;29;20440;-88
2020/12/05 00:03:17;;;;;;;15.40;9.18;;;;;;;8.66;68.45;97443.81;4845877;29;20061;-88
2020/12/05 00:05:47;;;;;;;16.02;8.88;;;;;;;8.66;68.16;97434.16;4847750;29;20523;-88
2020/12/05 00:08:13;;;;;;;13.50;7.35;;;;;;;8.67;68.32;97427.94;4846772;29;20056;-89
2020/12/05 00:10:39;;;;;;;11.98;7.22;;;;;;;8.69;68.36;97438.28;4846848;29;20050;-89
2020/12/05 00:13:07;;;;;;;15.13;9.00;;;;;;;8.68;68.25;97442.69;4846702;29;20056;-89
2020/12/05 00:15:35;;;;;;;13.85;8.05;;;;;;;8.68;68.00;97440.06;4846313;29;20106;-88
2020/12/05 00:18:01;;;;;;;18.25;8.95;;;;;;;8.69;67.99;97444.38;4846778;29;20054;-89
2020/12/05 00:20:27;;;;;;;15.10;8.50;;;;;;;8.68;68.07;97440.06;4846486;29;20054;-88
2020/12/05 00:22:53;;;;;;;14.15;8.57;;;;;;;8.66;68.05;97442.03;4847463;29;20058;-88
2020/12/05 00:25:22;;;;;;;13.10;8.45;;;;;;;8.66;68.28;97442.03;4846456;29;20058;-88
2020/12/05 00:27:48;;;;;;;15.73;8.50;;;;;;;8.66;68.17;97443.81;4843639;29;20525;-89
2020/12/05 00:30:15;;;;;;;15.95;8.80;;;;;;;8.66;68.03;97462.16;4845012;29;20057;-87
2020/12/05 00:32:41;;;;;;;15.10;8.60;;;;;;;8.65;67.91;97460.50;4845672;29;20491;-88
2020/12/05 00:35:10;;;;;;;17.25;9.15;;;;;;;8.63;67.57;97470.31;4845077;29;20049;-88
2020/12/05 00:37:38;;;;;;;13.70;8.40;;;;;;;8.63;68.09;97476.38;4845692;29;20050;-88
2020/12/05 00:40:07;;;;;;;17.00;8.80;;;;;;;8.63;68.16;97471.13;4846210;29;20057;-89
2020/12/05 06:17:37;;;;;;;22.38;15.10;;;;;;;8.04;71.27;97599.19;4843740;29;20050;-90
2020/12/05 06:20:03;;;;;;;24.88;15.18;;;;;;;8.05;71.13;97611.31;4844900;29;20054;-91
2020/12/05 06:35:59;;;;;;;21.08;14.48;;;;;;;8.02;70.72;97609.78;4792514;30;20062;-90
2020/12/05 06:38:41;;;;;;;23.25;15.43;;;;;;;8.05;70.94;97616.56;4784082;29;20070;-89
2020/12/05 06:41:09;;;;;;;24.52;16.48;;;;;;;8.04;71.63;97623.59;4823333;29;20057;-89
2020/12/05 06:43:38;;;;;;;22.95;15.45;;;;;;;8.04;71.34;97633.25;4864524;29;20137;-89
2020/12/05 06:46:04;;;;;;;24.35;14.77;;;;;;;8.05;71.76;97642.78;4867079;29;20122;-91
2020/12/05 06:48:33;;;;;;;25.55;15.60;;;;;;;8.07;71.45;97646.09;4868034;29;20050;-91
2020/12/05 06:51:00;;;;;;;26.88;17.85;;;;;;;8.07;71.46;97662.66;4865555;29;20057;-89
2020/12/05 06:53:27;;;;;;;26.50;16.67;;;;;;;8.11;71.64;97662.41;4865998;29;20517;-88
2020/12/05 06:55:55;;;;;;;27.85;17.40;;;;;;;8.11;71.42;97681.56;4866143;29;20126;-89
2020/12/05 06:58:29;;;;;;;26.88;17.40;;;;;;;8.08;70.39;97684.47;4864052;29;20059;-90
2020/12/05 07:01:02;;;;;;;28.50;17.88;;;;;;;8.07;70.73;97690.63;4863713;29;20049;-92
2020/12/05 07:03:30;;;;;;;27.10;17.60;;;;;;;8.01;70.99;97702.47;4866950;29;20064;-92
2020/12/05 07:06:03;;;;;;;29.25;17.10;;;;;;;7.94;70.57;97704.72;4865646;29;20109;-89
2020/12/05 07:08:56;;;;;;;28.52;16.83;;;;;;;7.89;70.50;97706.03;4865840;29;20053;-89
2020/12/05 07:11:30;;;;;;;23.98;15.63;;;;;;;7.90;71.18;97716.41;4866249;29;20503;-88
2020/12/05 07:13:57;;;;;;;29.13;18.08;;;;;;;7.86;71.44;97722.84;4865299;29;20066;-91
2020/12/05 07:16:38;;;;;;;29.65;16.55;;;;;;;7.81;71.16;97717.94;4863464;29;20057;-88
2020/12/05 07:19:07;;;;;;;26.17;17.17;;;;;;;7.82;71.89;97732.72;4865516;29;20049;-88
2020/12/05 07:21:37;;;;;;;23.92;15.55;;;;;;;7.82;71.59;97737.13;4865587;29;20073;-88
2020/12/05 07:24:12;;;;;;;17.33;11.77;;;;;;;7.85;71.71;97749.97;4864974;29;20057;-89
2020/12/05 07:26:40;;;;;;;26.47;18.13;;;;;;;7.88;71.48;97752.34;4865926;29;20061;-91
2020/12/05 07:29:06;;;;;;;27.33;17.05;;;;;;;7.88;71.66;97752.34;4863076;29;20290;-89
2020/12/05 07:31:32;;;;;;;29.30;18.77;;;;;;;7.88;71.41;97762.84;4865365;29;20436;-91
2020/12/05 07:33:59;;;;;;;27.15;16.70;;;;;;;7.86;71.07;97763.91;4864619;29;20495;-89
2020/12/05 07:36:38;;;;;;;30.15;17.92;;;;;;;7.83;71.09;97764.97;4864846;29;20136;-88
2020/12/05 07:39:13;;;;;;;29.65;18.33;;;;;;;7.79;70.99;97767.03;4864739;29;20054;-89
2020/12/05 07:41:50;;;;;;;32.03;18.92;;;;;;;7.74;70.67;97778.81;4865447;29;20136;-89
2020/12/05 07:44:20;;;;;;;29.10;18.63;;;;;;;7.69;70.56;97790.47;4863100;29;20057;-90
2020/12/05 07:46:46;;;;;;;36.72;17.05;;;;;;;7.65;70.55;97790.81;4866353;29;20556;-88
2020/12/05 07:49:13;;;;;;;30.88;18.05;;;;;;;7.56;70.85;97792.34;4864929;29;20415;-88
2020/12/05 07:51:41;;;;;;;33.97;17.90;;;;;;;7.49;71.19;97801.63;4864974;29;20053;-91
2020/12/05 07:54:13;;;;;;;31.83;19.50;;;;;;;7.42;71.19;97799.47;4866746;29;20468;-90
2020/12/05 07:56:39;;;;;;;32.75;18.83;;;;;;;7.39;71.67;97804.94;4864587;29;20404;-88
2020/12/05 07:59:07;;;;;;;29.08;18.92;;;;;;;7.36;71.50;97807.78;4865615;29;20571;-88
2020/12/05 08:02:05;;;;;;;33.03;20.02;;;;;;;7.30;71.58;97811.69;4863228;29;20054;-88
2020/12/05 08:05:22;;;;;;;27.25;18.38;;;;;;;7.28;71.94;97817.97;4863423;29;20186;-87
2020/12/05 08:08:16;;;;;;;28.55;18.30;;;;;;;7.29;71.95;97824.91;4853726;29;20065;-91
2020/12/05 08:10:46;;;;;;;30.30;19.00;;;;;;;7.32;72.62;97824.66;4864030;29;20064;-87
2020/12/05 08:13:24;;;;;;;28.98;18.83;;;;;;;7.29;72.18;97830.97;4864438;29;20410;-91
2020/12/05 08:16:02;;;;;;;31.42;21.00;;;;;;;7.32;72.21;97842.97;4865108;29;20078;-89
2020/12/05 08:18:33;;;;;;;32.17;21.00;;;;;;;7.37;72.45;97834.78;4865720;29;20121;-89
2020/12/05 08:21:04;;;;;;;35.10;21.20;;;;;;;7.38;72.58;97845.16;4864743;29;20061;-87
2020/12/05 08:23:37;;;;;;;36.05;23.52;;;;;;;7.39;72.35;97854.66;4866132;29;20136;-87
2020/12/05 08:26:09;;;;;;;34.70;21.10;;;;;;;7.41;71.92;97870.25;4865515;29;20064;-87
2020/12/05 08:28:46;;;;;;;33.45;22.35;;;;;;;7.43;72.21;97870.97;4862926;29;20444;-88
2020/12/05 08:31:13;;;;;;;34.20;22.83;;;;;;;7.38;72.00;97881.81;4867396;29;20128;-88
2020/12/05 08:33:44;;;;;;;33.63;22.55;;;;;;;7.36;71.92;97881.06;4865659;29;20140;-88
2020/12/05 08:36:32;;;;;;;31.13;22.58;;;;;;;7.32;71.85;97892.72;4863314;29;20069;-87
2020/12/05 08:39:18;;;;;;;32.55;20.67;;;;;;;7.28;72.10;97901.72;4862752;29;20065;-88
2020/12/05 08:41:49;;;;;;;31.25;20.38;;;;;;;7.29;72.54;97904.25;4865357;29;20057;-88
2020/12/05 08:44:22;;;;;;;30.80;21.48;;;;;;;7.27;72.50;97905.31;4862099;29;20122;-87
2020/12/05 08:47:01;;;;;;;30.13;19.95;;;;;;;7.28;72.69;97918.28;4864800;29;20072;-89
2020/12/05 08:49:27;;;;;;;29.75;20.13;;;;;;;7.33;72.80;97917.09;4863871;29;20050;-90
2020/12/05 08:51:59;;;;;;;26.10;19.40;;;;;;;7.34;72.99;97935.31;4865482;29;20058;-87
2020/12/05 08:54:25;;;;;;;32.42;19.48;;;;;;;7.38;73.07;97926.31;4863867;29;20061;-87
2020/12/05 08:57:06;;;;;;;31.58;21.42;;;;;;;7.39;72.45;97930.56;4863965;29;20053;-87
2020/12/05 08:59:32;;;;;;;33.17;21.40;;;;;;;7.45;73.01;97926.69;4865706;29;20054;-90
2020/12/05 09:01:59;;;;;;;29.50;19.40;;;;;;;7.48;72.81;97933.47;4863768;29;20067;-88
2020/12/05 09:04:31;;;;;;;32.60;21.55;;;;;;;7.50;73.04;97928.94;4865170;29;20132;-88
2020/12/05 09:07:10;;;;;;;33.83;21.83;;;;;;;7.48;72.62;97928.22;4865015;29;20049;-88
2020/12/05 09:09:37;;;;;;;29.42;21.20;;;;;;;7.52;72.81;97935.72;4864109;29;20121;-88
2020/12/05 09:12:12;;;;;;;29.40;19.88;;;;;;;7.51;72.77;97933.25;4861382;29;20575;-88
2020/12/05 09:14:39;;;;;;;32.03;21.48;;;;;;;7.54;72.81;97939.09;4861645;29;20069;-91
2020/12/05 09:17:23;;;;;;;32.60;21.58;;;;;;;7.52;72.38;97940.16;4862542;29;20050;-87
2020/12/05 09:19:49;;;;;;;;;;;;;;;7.56;72.23;97946.84;4864882;29;20132;-86
2020/12/05 09:22:35;;;;;;;31.13;21.95;;;;;;;7.55;72.38;97951.22;4867330;29;19951;-88
2020/12/05 09:25:03;;;;;;;30.58;21.75;;;;;;;7.58;72.60;97947.53;4868561;29;20073;-88
2020/12/05 09:27:41;;;;;;;28.23;20.20;;;;;;;7.55;72.44;97960.84;4867905;29;20061;-87
2020/12/05 09:30:13;;;;;;;30.55;21.55;;;;;;;7.56;72.54;97960.75;4866861;29;20053;-88
2020/12/05 09:32:41;;;;;;;34.70;23.27;;;;;;;7.56;72.81;97979.06;4868077;29;20053;-88
2020/12/05 09:35:10;;;;;;;30.73;21.38;;;;;;;7.55;72.95;97977.41;4866628;29;20140;-90
2020/12/05 09:37:37;;;;;;;31.25;21.80;;;;;;;7.56;73.08;97988.72;4867206;29;20049;-88
2020/12/05 09:40:05;;;;;;;27.92;19.80;;;;;;;7.56;72.98;97993.97;4868741;29;20128;-88
2020/12/05 09:42:33;;;;;;;29.15;19.50;;;;;;;7.58;73.10;97997.28;4865102;29;20064;-87
2020/12/05 09:45:01;;;;;;;31.17;19.75;;;;;;;7.60;73.67;97989.31;4866351;29;20065;-88
2020/12/05 09:47:31;;;;;;;29.80;20.10;;;;;;;7.64;73.36;97996.00;4867247;29;20109;-88
2020/12/05 09:49:58;;;;;;;26.67;19.23;;;;;;;7.67;73.28;97999.22;4869818;29;20056;-88
2020/12/05 09:52:25;;;;;;;27.80;19.88;;;;;;;7.69;73.36;97999.97;4866315;29;20057;-88
2020/12/05 09:54:52;;;;;;;31.08;21.60;;;;;;;7.72;73.05;98008.53;4864823;29;20068;-88
2020/12/05 09:57:18;;;;;;;27.48;19.60;;;;;;;7.74;73.01;98004.03;4869946;29;20673;-88
2020/12/05 09:59:45;;;;;;;26.73;20.30;;;;;;;7.74;73.16;98001.41;4867415;29;20049;-88
2020/12/05 10:02:11;;;;;;;31.55;20.80;;;;;;;7.77;73.11;98011.63;4866706;29;20069;-90
2020/12/05 10:04:38;;;;;;;26.85;19.55;;;;;;;7.79;73.36;98007.16;4867467;29;20060;-87
2020/12/05 10:07:06;;;;;;;29.30;19.55;;;;;;;7.83;73.90;98008.59;4864928;29;20057;-87
2020/12/05 10:09:33;;;;;;;26.05;18.38;;;;;;;7.89;73.97;98013.34;4865883;29;20060;-88
2020/12/05 10:11:59;;;;;;;25.17;17.48;;;;;;;7.97;73.79;98017.22;4866764;29;20061;-88
2020/12/05 10:14:25;;;;;;;19.67;14.63;;;;;;;8.04;73.82;98019.25;4865499;29;20057;-88
2020/12/05 10:16:52;;;;;;;22.13;14.98;;;;;;;8.14;74.41;98018.56;4866462;29;20064;-87
2020/12/05 10:19:18;;;;;;;22.05;14.43;;;;;;;8.21;73.97;98002.28;4867388;29;20065;-88
2020/12/05 10:21:47;;;;;;;20.73;13.55;;;;;;;8.31;73.91;97999.78;4865452;29;20487;-86
2020/12/05 10:24:18;;;;;;;20.60;12.98;;;;;;;8.39;73.23;97990.50;4865306;29;20113;-88
2020/12/05 10:26:49;;;;;;;20.45;12.75;;;;;;;8.45;72.06;97990.84;4866312;29;20064;-90
2020/12/05 10:29:15;;;;;;;19.25;12.57;;;;;;;8.53;72.58;97995.56;4864688;29;20058;-88
2020/12/05 10:31:45;;;;;;;17.80;12.35;;;;;;;8.55;71.35;98000.66;4862912;29;20499;-87
2020/12/05 10:34:14;;;;;;;19.27;11.77;;;;;;;8.57;71.94;98004.81;4866391;29;20069;-88
2020/12/05 10:36:41;;;;;;;15.93;11.38;;;;;;;8.62;72.20;98008.88;4869366;29;20057;-88
2020/12/05 10:39:10;;;;;;;15.80;11.18;;;;;;;8.65;72.39;98014.75;4864845;29;20053;-92
2020/12/05 10:41:40;;;;;;;18.95;11.02;;;;;;;8.70;73.03;98014.38;4865513;29;20144;-91
2020/12/05 10:44:09;;;;;;;16.05;11.77;;;;;;;8.76;72.50;98006.03;4863227;29;20495;-89
2020/12/05 10:46:49;;;;;;;17.92;11.50;;;;;;;8.83;72.23;98014.28;4865225;29;20117;-89
2020/12/05 10:49:18;;;;;;;16.35;10.88;;;;;;;8.92;72.94;98005.69;4865679;29;20069;-88
2020/12/05 10:51:49;;;;;;;14.43;10.82;;;;;;;9.03;72.56;98006.59;4864717;29;20504;-92
2020/12/05 10:54:16;;;;;;;15.75;11.50;;;;;;;9.15;73.08;98002.19;4866740;29;20148;-92
2020/12/05 10:56:42;;;;;;;16.30;11.50;;;;;;;9.25;72.75;98003.97;4863736;29;20053;-88
2020/12/05 10:59:09;;;;;;;17.13;11.90;;;;;;;9.33;71.58;98000.72;4864866;29;20050;-90
2020/12/05 11:01:40;;;;;;;17.27;11.95;;;;;;;9.39;71.33;97997.59;4863933;29;20094;-89
2020/12/05 11:04:06;;;;;;;14.27;10.15;;;;;;;9.44;71.06;97983.25;4864491;29;20067;-91
2020/12/05 11:06:32;;;;;;;13.10;9.75;;;;;;;9.44;71.27;97991.97;4865887;29;20463;-89
2020/12/05 11:08:58;;;;;;;17.73;10.50;;;;;;;9.47;71.07;97996.16;4866982;29;20530;-89
2020/12/05 11:11:25;;;;;;;18.90;11.73;;;;;;;9.51;71.58;97998.41;4865236;29;20085;-89
2020/12/05 11:13:51;;;;;;;15.63;11.40;;;;;;;9.56;71.12;98018.19;4865678;29;20084;-90
2020/12/05 11:16:22;;;;;;;17.65;11.65;;;;;;;9.59;69.46;98028.44;4866238;29;20121;-90
2020/12/05 11:18:50;;;;;;;15.00;10.13;;;;;;;9.61;70.08;98045.75;4865609;29;20053;-91
2020/12/05 11:21:19;;;;;;;15.60;10.93;;;;;;;9.62;69.85;98057.09;4865851;29;20061;-92
2020/12/05 11:23:45;;;;;;;17.83;11.02;;;;;;;9.58;69.45;98056.53;4867202;29;20056;-91
2020/12/05 11:26:21;;;;;;;16.90;10.77;;;;;;;9.55;68.45;98041.00;4863673;29;20109;-89
2020/12/05 11:28:49;;;;;;;13.90;10.40;;;;;;;9.59;70.41;98037.19;4863047;29;20439;-91
2020/12/05 11:31:18;;;;;;;17.90;11.30;;;;;;;9.60;70.94;98044.09;4864835;29;20086;-90
2020/12/05 11:33:47;;;;;;;16.20;11.07;;;;;;;9.72;72.41;98050.16;4863475;29;20083;-90
2020/12/05 11:36:18;;;;;;;15.63;11.90;;;;;;;9.94;74.50;98056.28;4864515;29;20412;-89
2020/12/05 11:38:46;;;;;;;15.30;10.73;;;;;;;10.20;73.46;98057.72;4864773;29;20065;-90
2020/12/05 11:41:16;;;;;;;14.60;11.07;;;;;;;10.41;70.38;98055.94;4864600;29;20061;-90
2020/12/05 11:43:49;;;;;;;14.55;10.88;;;;;;;10.53;69.51;98048.84;4863123;29;20495;-91
2020/12/05 11:46:24;;;;;;;13.43;10.15;;;;;;;10.58;68.08;98044.97;4863427;29;20448;-89
2020/12/05 11:48:54;;;;;;;14.55;10.55;;;;;;;10.50;66.56;98045.66;4865657;29;20050;-90
2020/12/05 11:51:25;;;;;;;13.55;10.05;;;;;;;10.40;66.12;98050.81;4863565;29;20057;-92
2020/12/05 11:53:56;;;;;;;17.00;10.60;;;;;;;10.28;67.05;98050.03;4867308;29;20068;-90
2020/12/05 11:56:22;;;;;;;14.25;10.10;;;;;;;10.16;67.05;98057.13;4862915;29;20053;-89
2020/12/05 11:58:51;;;;;;;14.75;11.00;;;;;;;9.98;66.45;98049.00;4863947;29;20419;-91
2020/12/05 12:01:21;;;;;;;14.07;10.38;;;;;;;9.81;66.06;98058.25;4865759;29;20062;-92
2020/12/05 12:03:47;;;;;;;18.35;10.88;;;;;;;9.69;67.30;98060.06;4864507;29;20050;-92
2020/12/05 12:06:19;;;;;;;13.88;9.75;;;;;;;9.56;67.49;98057.59;4863453;29;20053;-92
2020/12/05 12:08:47;;;;;;;14.13;10.38;;;;;;;9.51;67.96;98077.22;4865078;29;20053;-91
2020/12/05 12:11:23;;;;;;;15.77;10.68;;;;;;;9.47;68.34;98075.78;4862457;29;20061;-89
2020/12/05 12:13:59;;;;;;;14.18;9.73;;;;;;;9.42;67.85;98084.97;4862896;29;20141;-92
2020/12/05 12:16:33;;;;;;;16.27;10.57;;;;;;;9.41;68.20;98068.38;4866244;29;20059;-89
2020/12/05 12:19:11;;;;;;;14.60;10.85;;;;;;;9.43;68.43;98078.75;4862881;29;20144;-90
2020/12/05 12:21:38;;;;;;;15.07;10.85;;;;;;;9.43;68.21;98082.22;4862264;29;20085;-89
2020/12/05 12:24:06;;;;;;;13.77;10.55;;;;;;;9.40;68.01;98090.34;4863495;29;20110;-89
2020/12/05 12:26:32;;;;;;;15.68;10.50;;;;;;;9.38;67.83;98093.09;4893378;23;20473;-90
2020/12/05 12:28:59;;;;;;;14.25;10.15;;;;;;;9.41;67.90;98107.75;4826949;29;20074;-92
2020/12/05 12:31:27;;;;;;;15.25;10.73;;;;;;;9.46;69.52;98110.84;4826925;29;20057;-91
2020/12/05 12:33:54;;;;;;;17.02;10.98;;;;;;;9.64;71.11;98107.72;4826979;29;20423;-91
2020/12/05 12:36:22;;;;;;;14.18;9.45;;;;;;;9.86;70.82;98109.47;4826851;29;20131;-91
2020/12/05 12:38:52;;;;;;;13.90;9.63;;;;;;;10.08;69.72;98125.28;4827238;29;20478;-92
2020/12/05 12:41:29;;;;;;;13.25;8.68;;;;;;;10.25;66.27;98126.56;4812037;29;20057;-91
2020/12/05 12:44:34;;;;;;;13.00;9.23;;;;;;;10.28;64.46;98121.88;4826693;29;20173;-91
2020/12/05 12:51:08;;;;;;;14.55;9.43;;;;;;;10.24;65.28;98125.69;4843242;29;20065;-91
2020/12/05 13:12:56;;;;;;;12.23;8.65;;;;;;;9.74;64.91;98134.94;4754411;30;20054;-92
2020/12/05 13:16:27;;;;;;;12.00;8.13;;;;;;;9.62;65.59;98133.28;4772030;30;20055;-92
2020/12/05 13:20:26;;;;;;;12.40;8.52;;;;;;;9.55;66.51;98118.97;4771828;30;20419;-92
2020/12/05 13:23:53;;;;;;;13.25;8.32;;;;;;;9.52;66.72;98120.91;4728641;30;20059;-92
2020/12/05 13:27:02;;;;;;;11.73;8.70;;;;;;;9.56;67.12;98131.97;4761078;30;20414;-93
2020/12/05 13:30:39;;;;;;;;;;;;;;;;;;;;;
2020/12/05 13:37:26;;;;;;;11.52;8.07;;;;;;;9.89;68.03;98158.31;4791643;29;20120;-93
2020/12/05 13:44:10;;;;;;;12.95;8.40;;;;;;;10.36;68.34;98150.16;4774729;30;20052;-93
2020/12/05 13:47:41;;;;;;;11.18;8.15;;;;;;;10.66;68.93;98159.13;4777261;30;20056;-93
2020/12/05 14:18:12;;;;;;;6.88;5.43;;;;;;;11.27;62.38;98233.13;4611356;31;20107;-93
2020/12/05 14:21:31;;;;;;;7.85;5.85;;;;;;;11.06;62.79;98225.19;4656380;30;20054;-93
2020/12/05 14:25:44;;;;;;;;;;;;;;;;;;;;;
2020/12/05 14:28:41;;;;;;;8.10;4.82;;;;;;;10.59;63.34;98234.31;4721944;30;20473;-92
2020/12/05 14:32:33;;;;;;;;;;;;;;;;;;;;;
2020/12/05 14:39:43;;;;;;;;;;;;;;;;;;;;;
2020/12/05 14:55:08;;;;;;;4.78;4.03;;;;;;;9.29;64.32;98224.25;4671955;30;20087;-93
2020/12/05 15:02:14;;;;;;;;;;;;;;;;;;;;;
2020/12/05 15:05:37;;;;;;;5.18;3.47;;;;;;;8.94;64.41;98226.81;4669617;30;20051;-93
2020/12/05 15:08:38;;;;;;;4.55;3.17;;;;;;;8.84;64.62;98236.34;4797691;29;20059;-93
2020/12/05 15:11:13;;;;;;;4.40;3.47;;;;;;;8.79;66.16;98244.53;4805413;29;20141;-92
2020/12/05 15:14:29;;;;;;;5.60;3.03;;;;;;;8.68;65.04;98253.19;4812538;29;20542;-93
2020/12/05 15:17:21;;;;;;;5.63;3.37;;;;;;;8.62;65.59;98266.78;4755417;30;20059;-94
2020/12/05 15:20:09;;;;;;;4.75;3.22;;;;;;;8.55;66.25;98269.00;4755294;30;20056;-92
2020/12/05 15:23:14;;;;;;;3.05;2.58;;;;;;;8.47;65.54;98269.53;4757366;30;20138;-93
2020/12/05 15:26:57;;;;;;;;;;;;;;;;;;;;;
2020/12/05 15:30:51;;;;;;;3.85;2.90;;;;;;;8.26;65.71;98265.84;4681812;30;20120;-93
2020/12/05 15:34:35;;;;;;;5.20;2.97;;;;;;;8.18;65.36;98263.75;4696783;30;20167;-93
2020/12/05 15:42:06;;;;;;;3.60;3.08;;;;;;;7.95;65.80;98274.94;4646582;30;20058;-94
2020/12/05 15:49:54;;;;;;;;;;;;;;;;;;;;;
2020/12/05 15:53:37;;;;;;;;;;;;;;;;;;;;;
2020/12/05 16:00:53;;;;;;;3.38;2.72;;;;;;;7.54;65.87;98273.38;4654242;30;20154;-94
2020/12/05 16:43:55;;;;;;;;;;;;;;;;;;;;;
2020/12/05 16:47:48;;;;;;;3.83;3.10;;;;;;;6.85;67.07;98332.00;4628707;31;20060;-93
2020/12/05 16:51:39;;;;;;;5.07;3.25;;;;;;;6.81;66.86;98328.75;4616513;31;20058;-93
2020/12/05 18:42:56;;;;;;;9.57;4.68;;;;;;;6.18;68.69;98445.91;5124298;27;20398;-89
2020/12/05 18:48:34;;;;;;;9.20;5.68;;;;;;;6.09;68.80;98452.56;5103968;22;20037;-87
2020/12/05 18:51:01;;;;;;;9.05;6.45;;;;;;;6.06;69.00;98442.28;5052151;28;20060;-87
2020/12/05 18:53:30;;;;;;;9.65;6.47;;;;;;;6.03;68.74;98445.91;5051193;28;20422;-88
2020/12/05 18:55:58;;;;;;;10.80;6.57;;;;;;;6.02;68.97;98446.78;5052323;28;20061;-88
2020/12/05 18:58:24;;;;;;;8.18;6.13;;;;;;;6.03;68.95;98448.53;5051299;28;20139;-88
2020/12/05 19:00:54;;;;;;;13.18;7.05;;;;;;;6.00;69.03;98449.53;5051579;28;20539;-88
2020/12/05 19:03:20;;;;;;;10.73;7.45;;;;;;;6.02;69.12;98454.63;5051573;28;20064;-88
2020/12/05 19:05:46;;;;;;;10.82;7.22;;;;;;;6.03;69.02;98450.25;5050548;28;20049;-90
2020/12/05 19:08:12;;;;;;;12.05;7.47;;;;;;;6.02;68.93;98446.78;5052209;28;20060;-90
2020/12/05 19:10:38;;;;;;;12.48;7.78;;;;;;;6.02;68.88;98440.75;5051345;28;20524;-90
2020/12/05 19:13:04;;;;;;;10.02;7.10;;;;;;;6.01;69.13;98439.88;5053552;28;20446;-90
2020/12/05 19:15:30;;;;;;;12.32;8.30;;;;;;;6.02;69.21;98445.97;5050429;28;20068;-87
2020/12/05 19:17:56;;;;;;;13.55;8.82;;;;;;;5.99;69.35;98444.38;5051105;28;20050;-88
2020/12/05 19:20:23;;;;;;;15.38;8.93;;;;;;;5.99;69.26;98449.59;5051746;28;20046;-88
2020/12/05 19:22:49;;;;;;;14.38;9.45;;;;;;;5.97;69.19;98449.69;5050788;28;20053;-90
2020/12/05 19:25:15;;;;;;;13.75;9.25;;;;;;;5.97;69.39;98460.13;5051804;28;20045;-91
2020/12/05 19:27:41;;;;;;;13.88;8.27;;;;;;;5.97;69.32;98456.69;5052674;28;20507;-88
2020/12/05 19:30:08;;;;;;;13.93;9.07;;;;;;;5.97;69.04;98464.50;5052569;28;20510;-90
2020/12/05 19:32:54;;;;;;;15.10;8.65;;;;;;;5.97;69.27;98464.50;5051274;28;20057;-87
2020/12/05 19:35:20;;;;;;;12.80;8.77;;;;;;;5.96;68.95;98452.38;5050805;28;20053;-87
2020/12/05 19:37:56;;;;;;;12.25;8.30;;;;;;;5.92;68.52;98453.50;5050570;28;20392;-88
2020/12/05 19:40:23;;;;;;;13.82;9.13;;;;;;;5.93;69.00;98460.41;5052042;28;20045;-88
2020/12/05 19:43:04;;;;;;;16.60;10.38;;;;;;;5.91;69.14;98470.94;5041439;28;20050;-88
2020/12/05 19:45:33;;;;;;;14.50;9.73;;;;;;;5.90;69.39;98484.94;5037963;28;20053;-87
2020/12/05 19:47:59;;;;;;;17.15;10.85;;;;;;;5.90;69.35;98489.34;5036147;28;20054;-88
2020/12/05 19:50:25;;;;;;;18.23;11.00;;;;;;;5.89;69.33;98488.47;5037523;28;20507;-88
2020/12/05 19:52:54;;;;;;;16.42;10.32;;;;;;;5.88;69.33;98489.41;5036179;28;20057;-90
2020/12/05 19:55:22;;;;;;;14.93;9.85;;;;;;;5.88;69.39;98494.63;5036723;28;20053;-90
2020/12/05 19:57:50;;;;;;;16.98;9.77;;;;;;;5.88;69.42;98505.09;5037917;28;20053;-90
2020/12/05 20:00:16;;;;;;;17.63;10.52;;;;;;;5.89;69.44;98498.06;5038407;28;20132;-90
2020/12/05 20:02:42;;;;;;;18.25;10.60;;;;;;;5.89;69.48;98505.91;5037949;28;20046;-90
2020/12/05 20:05:08;;;;;;;15.15;10.82;;;;;;;5.89;69.18;98511.13;5037788;28;20068;-90
2020/12/05 20:07:35;;;;;;;14.07;9.82;;;;;;;5.86;69.30;98497.34;5036511;28;20051;-88
2020/12/05 20:12:45;;;;;;;16.08;10.10;;;;;;;5.85;69.55;98508.72;5037618;28;20057;-88
2020/12/05 20:15:11;;;;;;;15.95;10.55;;;;;;;5.84;69.41;98511.41;5037946;28;20500;-87
2020/12/05 20:17:37;;;;;;;15.25;10.57;;;;;;;5.84;69.60;98506.19;5036074;28;20049;-88
2020/12/05 20:20:04;;;;;;;17.88;10.80;;;;;;;5.83;69.48;98510.56;5036534;28;20484;-86
2020/12/05 20:22:30;;;;;;;17.52;10.73;;;;;;;5.82;69.40;98514.09;5037183;28;20053;-87
2020/12/05 20:24:56;;;;;;;17.13;10.35;;;;;;;5.82;69.56;98521.94;5037889;28;20053;-88
2020/12/05 20:27:22;;;;;;;17.95;10.30;;;;;;;5.82;69.70;98519.34;5036098;28;20053;-87
2020/12/05 20:29:48;;;;;;;18.40;11.05;;;;;;;5.82;69.28;98521.94;5037017;28;20046;-87
2020/12/05 20:32:14;;;;;;;16.90;10.70;;;;;;;5.84;70.19;98524.47;5036009;28;20049;-87
2020/12/05 20:34:40;;;;;;;17.75;10.95;;;;;;;5.84;69.82;98525.28;5035835;28;20191;-88
2020/12/05 20:37:07;;;;;;;16.35;10.30;;;;;;;5.87;69.87;98529.53;5038028;28;20388;-90
2020/12/05 20:39:33;;;;;;;16.90;10.38;;;;;;;5.89;69.72;98530.25;5036559;28;20526;-87
2020/12/05 20:42:03;;;;;;;15.68;10.50;;;;;;;5.90;69.09;98528.50;5037340;28;20046;-88
2020/12/05 20:44:39;;;;;;;16.58;10.18;;;;;;;5.90;69.13;98538.94;5036856;28;20045;-90
2020/12/05 20:47:06;;;;;;;21.00;11.23;;;;;;;5.94;69.32;98527.41;5036950;28;20062;-88
2020/12/05 20:49:36;;;;;;;16.63;8.90;;;;;;;5.95;69.28;98526.47;5037954;28;20057;-88
2020/12/05 20:52:12;;;;;;;14.57;9.68;;;;;;;5.92;68.56;98521.41;5035939;28;20042;-89
2020/12/05 20:54:38;;;;;;;13.75;9.95;;;;;;;5.94;69.45;98516.94;5033649;28;20076;-91
2020/12/05 20:57:04;;;;;;;13.70;9.93;;;;;;;5.93;69.44;98510.88;5034935;28;20499;-90
2020/12/05 20:59:30;;;;;;;15.57;9.52;;;;;;;5.92;69.18;98511.81;5037609;28;20045;-88
2020/12/05 21:01:57;;;;;;;15.25;9.15;;;;;;;5.91;69.05;98511.91;5036351;28;20499;-89
2020/12/05 21:04:23;;;;;;;19.63;11.38;;;;;;;5.90;69.29;98505.00;5036406;28;20050;-87
2020/12/05 21:06:49;;;;;;;14.70;9.80;;;;;;;5.88;69.16;98492.03;5036151;28;20072;-88
2020/12/05 21:09:16;;;;;;;14.32;9.48;;;;;;;5.86;69.38;98479.06;5036055;28;20049;-88
2020/12/05 21:11:44;;;;;;;15.38;9.88;;;;;;;5.86;69.14;98484.28;5035705;28;20107;-89
2020/12/05 21:14:12;;;;;;;13.45;8.02;;;;;;;5.87;69.31;98491.16;5035472;28;20475;-88
2020/12/05 21:16:43;;;;;;;16.90;10.52;;;;;;;5.86;68.89;98492.13;5036985;28;20054;-87
2020/12/05 21:19:09;;;;;;;14.73;9.70;;;;;;;5.86;68.78;98486.03;5034966;28;20381;-90
2020/12/05 21:21:35;;;;;;;16.95;10.98;;;;;;;5.85;68.85;98473.91;5036199;28;20057;-88
2020/12/05 21:24:01;;;;;;;15.00;9.43;;;;;;;5.83;68.66;98474.00;5035584;28;20063;-87
2020/12/05 21:26:29;;;;;;;14.73;9.52;;;;;;;5.78;68.94;98494.31;5035996;28;20056;-88
2020/12/05 21:28:56;;;;;;;19.05;10.75;;;;;;;5.70;68.84;98512.19;5034128;28;20046;-87
2020/12/05 21:31:22;;;;;;;15.77;10.57;;;;;;;5.66;68.73;98513.28;5035548;28;20057;-90
2020/12/05 21:33:49;;;;;;;15.98;10.45;;;;;;;5.61;68.93;98524.03;5036334;28;20051;-90
2020/12/05 21:36:20;;;;;;;16.73;10.93;;;;;;;5.55;68.86;98519.13;5035257;28;20049;-88
2020/12/05 21:38:46;;;;;;;15.95;9.95;;;;;;;5.55;69.42;98526.97;5036597;28;20064;-90
2020/12/05 21:41:13;;;;;;;16.85;10.60;;;;;;;5.52;69.54;98535.81;5034671;28;20049;-88
2020/12/05 21:43:39;;;;;;;18.15;9.32;;;;;;;5.52;69.38;98525.38;5035019;28;20045;-90
2020/12/05 21:46:05;;;;;;;16.63;10.30;;;;;;;5.53;69.79;98537.47;5035877;28;20061;-89
2020/12/05 21:48:31;;;;;;;16.02;10.70;;;;;;;5.52;69.59;98535.81;5035235;28;20551;-88
2020/12/05 21:50:58;;;;;;;13.63;9.65;;;;;;;5.52;69.51;98541.03;5035656;28;20092;-88
2020/12/05 21:53:24;;;;;;;16.90;9.93;;;;;;;5.52;69.67;98534.94;5035856;28;20045;-90
2020/12/05 21:55:50;;;;;;;13.38;9.18;;;;;;;5.52;69.69;98527.97;5034875;28;20041;-88
2020/12/05 21:58:17;;;;;;;14.45;9.10;;;;;;;5.55;69.66;98511.28;5034689;28;20053;-87
2020/12/05 22:00:43;;;;;;;14.65;9.85;;;;;;;5.56;69.74;98520.81;5033904;28;20053;-90
2020/12/05 22:03:12;;;;;;;16.25;9.90;;;;;;;5.56;69.03;98513.81;5034297;28;20451;-87
2020/12/05 22:05:38;;;;;;;14.07;9.50;;;;;;;5.57;68.98;98519.91;5035578;28;20061;-88
2020/12/05 22:08:04;;;;;;;14.23;9.45;;;;;;;5.56;69.08;98513.81;5034828;28;20053;-90
2020/12/05 22:10:31;;;;;;;15.85;10.55;;;;;;;5.52;69.03;98512.31;5036461;28;20057;-87
2020/12/05 22:12:57;;;;;;;19.20;10.45;;;;;;;5.48;69.02;98511.66;5035578;28;20045;-88